Time;durP1;ratioP1;P1;durP2;ratioP2;P2;SDS_P1;SDS_P2;PMS_P1;PMS_P2;Temp;Humidity;BMP_temperature;BMP_pressure;BME280_temperature;BME280_humidity;BME280_pressure;Samples;Min_cycle;Max_cycle;Signal;HPM_P1;HPM_P2
2022/03/02 00:01:06;;;;;;;;;;;;;;;-1.65;65.60;95667.56;5136163;27;1269;-48
2022/03/02 00:03:32;;;;;;;;;;;;;;;-1.80;66.09;95669.16;5136199;27;976;-48
2022/03/02 00:05:58;;;;;;;;;;;;;;;-1.85;65.29;95671.16;5136101;27;1095;-48
2022/03/02 00:08:24;;;;;;;;;;;;;;;-1.90;65.99;95663.50;5136613;27;1269;-48
2022/03/02 00:10:50;;;;;;;;;;;;;;;-1.91;66.10;95664.44;5136331;27;1063;-48
2022/03/02 00:13:16;;;;;;;;;;;;;;;-1.79;65.96;95661.22;5136052;27;1024;-48
2022/03/02 00:15:42;;;;;;;;;;;;;;;-1.66;65.36;95660.63;5136062;27;1913;-48
2022/03/02 00:18:08;;;;;;;;;;;;;;;-1.72;65.34;95658.31;5136286;27;1059;-48
2022/03/02 00:20:34;;;;;;;;;;;;;;;-1.91;66.27;95658.34;5135884;27;1024;-48
2022/03/02 00:23:00;;;;;;;;;;;;;;;-1.78;66.06;95652.44;5136039;27;1036;-48
2022/03/02 00:25:26;;;;;;;;;;;;;;;-1.78;66.28;95649.81;5136200;27;1047;-48
2022/03/02 00:27:52;;;;;;;;;;;;;;;-1.92;66.32;95648.78;5135864;27;1086;-48
2022/03/02 00:30:18;;;;;;;;;;;;;;;-1.83;66.61;95645.72;5135894;27;995;-48
2022/03/02 00:32:44;;;;;;;;;;;;;;;-1.62;65.40;95643.81;5135859;27;1037;-48
2022/03/02 00:35:10;;;;;;;;;;;;;;;-1.53;65.42;95643.38;5135625;27;1906;-48
2022/03/02 00:37:37;;;;;;;;;;;;;;;-1.65;65.91;95646.56;5135811;27;1005;-48
2022/03/02 00:40:03;;;;;;;;;;;;;;;-1.56;65.83;95643.50;5135874;27;1036;-48
2022/03/02 00:42:30;;;;;;;;;;;;;;;-1.49;66.04;95647.53;5135742;27;973;-48
2022/03/02 00:44:56;;;;;;;;;;;;;;;-1.38;66.34;95653.09;5135679;27;1040;-48
2022/03/02 00:47:22;;;;;;;;;;;;;;;-1.27;66.24;95643.81;5135368;27;1174;-48
2022/03/02 00:49:48;;;;;;;;;;;;;;;-1.30;66.40;95639.59;5135697;27;1044;-48
2022/03/02 00:52:15;;;;;;;;;;;;;;;-1.39;66.49;95629.56;5118765;27;1156;-48
2022/03/02 00:54:41;;;;;;;;;;;;;;;-1.42;66.31;95625.31;5114979;28;1914;-49
2022/03/02 00:57:07;;;;;;;;;;;;;;;-1.35;66.64;95623.22;5114916;28;1032;-48
2022/03/02 00:59:33;;;;;;;;;;;;;;;-1.37;67.00;95625.09;5114901;28;1244;-49
2022/03/02 01:01:59;;;;;;;;;;;;;;;-1.37;67.45;95619.84;5114735;28;956;-48
2022/03/02 01:04:25;;;;;;;;;;;;;;;-1.20;66.58;95621.59;5114902;28;1043;-49
2022/03/02 01:06:51;;;;;;;;;;;;;;;-1.40;67.49;95618.22;5114362;28;1882;-48
2022/03/02 01:09:17;;;;;;;;;;;;;;;-1.37;67.68;95614.59;5114843;28;1086;-48
2022/03/02 01:11:43;;;;;;;;;;;;;;;-1.08;66.82;95609.63;5114710;28;968;-48
2022/03/02 01:14:09;;;;;;;;;;;;;;;-1.02;66.69;95604.91;5114538;28;1976;-48
2022/03/02 01:16:35;;;;;;;;;;;;;;;-1.07;66.28;95600.84;5113538;28;1865;-48
2022/03/02 01:19:02;;;;;;;;;;;;;;;-0.96;65.84;95595.88;5114321;28;1067;-48
2022/03/02 01:21:28;;;;;;;;;;;;;;;-0.79;65.37;95600.25;5114220;28;1968;-48
2022/03/02 01:23:56;;;;;;;;;;;;;;;-0.71;64.79;95595.41;5114596;28;966;-48
2022/03/02 01:26:24;;;;;;;;;;;;;;;-0.72;64.72;95592.88;5114489;28;1007;-48
2022/03/02 01:28:51;;;;;;;;;;;;;;;-0.77;64.61;95579.16;5114249;28;1866;-48
2022/03/02 01:31:18;;;;;;;;;;;;;;;-0.92;67.13;95588.69;5113975;28;1091;-48
2022/03/02 01:33:44;;;;;;;;;;;;;;;-1.05;66.34;95575.34;5114099;28;1906;-48
2022/03/02 01:36:10;;;;;;;;;;;;;;;-1.04;66.81;95582.31;5113946;28;1040;-48
2022/03/02 01:38:36;;;;;;;;;;;;;;;-1.05;66.43;95577.97;5114123;28;1964;-48
2022/03/02 01:41:02;;;;;;;;;;;;;;;-1.00;66.28;95574.19;5113984;28;1000;-48
2022/03/02 01:43:29;;;;;;;;;;;;;;;-1.07;66.16;95564.09;5113919;28;1036;-48
2022/03/02 01:45:55;;;;;;;;;;;;;;;-1.12;66.92;95566.09;5113962;28;969;-48
2022/03/02 01:48:21;;;;;;;;;;;;;;;-1.37;67.87;95570.00;5113758;28;973;-48
2022/03/02 01:50:47;;;;;;;;;;;;;;;-1.45;68.22;95566.91;5117874;27;1997;-48
2022/03/02 01:53:13;;;;;;;;;;;;;;;-1.49;68.19;95571.47;5134460;27;965;-48
2022/03/02 01:55:39;;;;;;;;;;;;;;;-1.48;67.79;95565.31;5134679;27;1984;-48
2022/03/02 01:58:05;;;;;;;;;;;;;;;-1.45;67.44;95569.53;5134678;27;952;-48
2022/03/02 02:00:31;;;;;;;;;;;;;;;-1.45;66.68;95557.28;5134066;27;1110;-48
2022/03/02 02:02:57;;;;;;;;;;;;;;;-1.57;66.73;95555.28;5134321;27;1035;-48
2022/03/02 02:05:23;;;;;;;;;;;;;;;-1.62;67.21;95555.50;5134519;27;1149;-48
2022/03/02 02:07:49;;;;;;;;;;;;;;;-1.73;67.32;95560.44;5134351;27;987;-48
2022/03/02 02:10:15;;;;;;;;;;;;;;;-1.71;67.46;95566.44;5134446;27;1015;-48
2022/03/02 02:12:41;;;;;;;;;;;;;;;-1.69;67.51;95556.75;5134217;27;1043;-48
2022/03/02 02:15:09;;;;;;;;;;;;;;;-1.70;67.71;95564.69;5134044;28;1982;-48
2022/03/02 02:17:35;;;;;;;;;;;;;;;-1.79;67.45;95566.00;5133953;27;1078;-48
2022/03/02 02:20:02;;;;;;;;;;;;;;;-1.91;67.85;95562.22;5134093;27;1023;-48
2022/03/02 02:22:28;;;;;;;;;;;;;;;-2.07;68.09;95556.84;5134268;27;1015;-48
2022/03/02 02:24:54;;;;;;;;;;;;;;;-2.02;68.34;95554.03;5134040;28;1098;-48
2022/03/02 02:27:20;;;;;;;;;;;;;;;-2.17;68.69;95561.69;5136583;27;1044;-48
2022/03/02 02:29:48;;;;;;;;;;;;;;;-1.93;68.20;95553.56;5138179;27;1036;-48
2022/03/02 02:32:14;;;;;;;;;;;;;;;-1.79;68.69;95553.72;5138044;27;1109;-48
2022/03/02 02:34:40;;;;;;;;;;;;;;;-1.75;69.10;95550.97;5138408;27;1921;-48
2022/03/02 02:37:07;;;;;;;;;;;;;;;-1.89;68.56;95549.88;5138199;27;953;-48
2022/03/02 02:39:35;;;;;;;;;;;;;;;-2.09;68.66;95555.25;5138458;27;969;-48
2022/03/02 02:42:02;;;;;;;;;;;;;;;-2.11;68.50;95557.94;5137669;27;2020;-48
2022/03/02 02:44:28;;;;;;;;;;;;;;;-2.07;68.73;95562.09;5138351;27;1043;-48
2022/03/02 02:46:54;;;;;;;;;;;;;;;-2.01;69.00;95546.09;5138023;27;1043;-48
2022/03/02 02:49:20;;;;;;;;;;;;;;;-1.74;68.12;95548.28;5138155;27;1084;-48
2022/03/02 02:51:46;;;;;;;;;;;;;;;-1.65;68.21;95546.94;5125471;27;1156;-48
2022/03/02 02:54:12;;;;;;;;;;;;;;;-1.61;68.40;95549.34;5117032;28;1991;-48
2022/03/02 02:56:38;;;;;;;;;;;;;;;-1.79;68.81;95551.09;5117205;28;1030;-48
2022/03/02 02:59:04;;;;;;;;;;;;;;;-1.80;69.04;95554.66;5117235;28;1019;-48
2022/03/02 03:01:30;;;;;;;;;;;;;;;-1.67;68.77;95540.94;5116786;28;1162;-48
2022/03/02 03:03:56;;;;;;;;;;;;;;;-1.57;69.02;95537.78;5117129;28;974;-48
2022/03/02 03:06:22;;;;;;;;;;;;;;;-1.45;68.56;95541.53;5117060;28;1028;-48
2022/03/02 03:08:48;;;;;;;;;;;;;;;-1.38;68.87;95539.47;5116913;28;1043;-48
2022/03/02 03:11:14;;;;;;;;;;;;;;;-1.32;69.29;95533.03;5116952;28;1004;-48
2022/03/02 03:13:40;;;;;;;;;;;;;;;-1.41;69.18;95531.72;5115572;28;2003;-48
2022/03/02 03:16:07;;;;;;;;;;;;;;;-1.50;68.54;95532.22;5116721;28;1009;-48
2022/03/02 03:18:33;;;;;;;;;;;;;;;-1.70;69.55;95533.25;5116564;28;1055;-48
2022/03/02 03:20:59;;;;;;;;;;;;;;;-1.70;69.43;95528.00;5116956;28;987;-48
2022/03/02 03:23:27;;;;;;;;;;;;;;;-1.56;69.07;95533.38;5116511;28;1225;-48
2022/03/02 03:25:53;;;;;;;;;;;;;;;-1.38;69.13;95529.81;5116732;28;1037;-48
2022/03/02 03:28:19;;;;;;;;;;;;;;;-1.12;68.66;95526.75;5116475;28;1036;-49
2022/03/02 03:30:45;;;;;;;;;;;;;;;-1.04;68.80;95520.16;5116354;28;1096;-48
2022/03/02 03:33:11;;;;;;;;;;;;;;;-1.19;69.05;95519.19;5116647;28;972;-48
2022/03/02 03:35:37;;;;;;;;;;;;;;;-1.46;69.46;95518.88;5116379;28;1976;-48
2022/03/02 03:38:03;;;;;;;;;;;;;;;-1.68;70.38;95524.34;5115471;28;960;-48
2022/03/02 03:40:29;;;;;;;;;;;;;;;-1.62;70.31;95520.56;5116477;28;1051;-48
2022/03/02 03:42:55;;;;;;;;;;;;;;;-1.45;69.73;95524.97;5116044;28;1060;-48
2022/03/02 03:45:21;;;;;;;;;;;;;;;-1.45;69.62;95525.78;5116444;28;1043;-48
2022/03/02 03:47:47;;;;;;;;;;;;;;;-1.28;69.24;95524.94;5116348;28;961;-48
2022/03/02 03:50:13;;;;;;;;;;;;;;;-1.14;69.11;95521.56;5116068;28;1040;-48
2022/03/02 03:52:39;;;;;;;;;;;;;;;-1.16;68.34;95528.66;5136279;27;1188;-48
2022/03/02 03:55:07;;;;;;;;;;;;;;;-1.11;67.81;95528.44;5136617;27;1977;-48
2022/03/02 03:57:33;;;;;;;;;;;;;;;-1.03;68.04;95523.63;5136931;27;1047;-48
2022/03/02 03:59:59;;;;;;;;;;;;;;;-0.91;68.78;95524.75;5135997;27;1269;-48
2022/03/02 04:02:25;;;;;;;;;;;;;;;-1.00;69.15;95526.94;5136549;27;1011;-48
2022/03/02 04:04:51;;;;;;;;;;;;;;;-0.98;69.26;95522.47;5136453;27;1067;-48
2022/03/02 04:07:17;;;;;;;;;;;;;;;-1.00;69.84;95521.69;5136628;27;975;-48
2022/03/02 04:09:43;;;;;;;;;;;;;;;-0.91;70.08;95533.50;5136339;27;1025;-48
2022/03/02 04:12:09;;;;;;;;;;;;;;;-0.84;68.95;95531.38;5136599;27;983;-48
2022/03/02 04:14:35;;;;;;;;;;;;;;;-0.93;70.52;95539.72;5135882;27;1909;-48
2022/03/02 04:17:01;;;;;;;;;;;;;;;-0.99;70.13;95530.41;5136378;27;1015;-48
2022/03/02 04:19:27;;;;;;;;;;;;;;;-0.81;69.73;95536.47;5136350;27;1035;-48
2022/03/02 04:21:53;;;;;;;;;;;;;;;-0.75;69.65;95532.66;5136184;27;1003;-48
2022/03/02 04:24:19;;;;;;;;;;;;;;;-0.80;69.82;95530.25;5136197;27;975;-48
2022/03/02 04:26:45;;;;;;;;;;;;;;;-0.81;70.09;95528.59;5135972;27;1110;-48
2022/03/02 04:29:11;;;;;;;;;;;;;;;-0.70;69.37;95530.59;5136082;27;1028;-48
2022/03/02 04:31:37;;;;;;;;;;;;;;;-0.62;69.42;95534.53;5135842;27;1036;-48
2022/03/02 04:34:03;;;;;;;;;;;;;;;-0.60;69.41;95532.66;5135674;27;2041;-48
2022/03/02 04:36:29;;;;;;;;;;;;;;;-0.60;69.39;95522.16;5135856;27;1036;-50
2022/03/02 04:38:55;;;;;;;;;;;;;;;-0.54;68.85;95534.09;5135851;27;1019;-48
2022/03/02 04:41:21;;;;;;;;;;;;;;;-0.60;69.00;95521.31;5135747;27;1027;-48
2022/03/02 04:43:47;;;;;;;;;;;;;;;-0.76;69.71;95534.41;5135475;27;1032;-48
2022/03/02 04:46:13;;;;;;;;;;;;;;;-0.91;69.90;95524.75;5135570;27;1074;-48
2022/03/02 04:48:39;;;;;;;;;;;;;;;-0.84;70.21;95528.75;5135807;27;1093;-48
2022/03/02 04:51:05;;;;;;;;;;;;;;;-0.74;70.17;95529.09;5128658;27;1196;-48
2022/03/02 04:53:31;;;;;;;;;;;;;;;-0.82;70.18;95530.34;5115239;28;1011;-48
2022/03/02 04:55:57;;;;;;;;;;;;;;;-0.79;69.69;95530.19;5114700;28;1977;-48
2022/03/02 04:58:23;;;;;;;;;;;;;;;-0.69;69.72;95525.28;5115071;28;1020;-48
2022/03/02 05:00:49;;;;;;;;;;;;;;;-0.52;69.16;95526.16;5114283;28;1218;-48
2022/03/02 05:03:15;;;;;;;;;;;;;;;-0.49;68.90;95526.00;5115107;28;952;-48
2022/03/02 05:05:41;;;;;;;;;;;;;;;-0.55;69.75;95521.91;5114790;28;1015;-48
2022/03/02 05:08:08;;;;;;;;;;;;;;;-0.46;69.88;95523.16;5114922;28;1026;-48
2022/03/02 05:10:34;;;;;;;;;;;;;;;-0.46;70.25;95528.44;5114800;28;1051;-48
2022/03/02 05:13:02;;;;;;;;;;;;;;;-0.45;70.14;95525.72;5114317;28;1876;-48
2022/03/02 05:15:28;;;;;;;;;;;;;;;-0.49;70.04;95520.72;5114105;28;1913;-48
2022/03/02 05:17:54;;;;;;;;;;;;;;;-0.40;70.38;95528.06;5114431;28;1085;-48
2022/03/02 05:20:20;;;;;;;;;;;;;;;-0.40;69.95;95525.44;5114624;28;1035;-48
2022/03/02 05:22:46;;;;;;;;;;;;;;;-0.62;69.83;95537.16;5114605;28;1051;-48
2022/03/02 05:25:13;;;;;;;;;;;;;;;-0.54;70.79;95534.09;5114439;28;1004;-48
2022/03/02 05:27:40;;;;;;;;;;;;;;;-0.47;69.96;95530.22;5114658;28;976;-48
2022/03/02 05:30:07;;;;;;;;;;;;;;;-0.48;70.38;95530.28;5113892;28;1232;-48
2022/03/02 05:32:33;;;;;;;;;;;;;;;-0.58;70.61;95523.88;5114548;28;965;-48
2022/03/02 05:34:59;;;;;;;;;;;;;;;-0.48;70.58;95530.28;5113915;28;1914;-48
2022/03/02 05:37:25;;;;;;;;;;;;;;;-0.24;69.04;95526.28;5114503;28;960;-49
2022/03/02 05:39:51;;;;;;;;;;;;;;;-0.06;68.96;95531.44;5114201;28;1004;-48
2022/03/02 05:42:17;;;;;;;;;;;;;;;-0.04;68.64;95530.44;5113923;28;1016;-48
2022/03/02 05:44:45;;;;;;;;;;;;;;;-0.09;69.35;95536.88;5113812;28;1943;-48
2022/03/02 05:47:11;;;;;;;;;;;;;;;-0.12;69.86;95532.63;5114146;28;1011;-49
2022/03/02 05:49:37;;;;;;;;;;;;;;;-0.10;69.93;95532.56;5114244;28;965;-48
2022/03/02 05:52:04;;;;;;;;;;;;;;;-0.09;69.95;95537.72;5128822;27;1204;-49
2022/03/02 05:54:30;;;;;;;;;;;;;;;-0.14;70.74;95528.41;5134347;27;1991;-48
2022/03/02 05:56:56;;;;;;;;;;;;;;;-0.10;70.12;95535.19;5134512;27;961;-49
2022/03/02 05:59:22;;;;;;;;;;;;;;;-0.07;69.82;95535.03;5134106;27;1230;-48
2022/03/02 06:01:49;;;;;;;;;;;;;;;-0.16;69.78;95530.28;5134061;27;998;-48
2022/03/02 06:04:15;;;;;;;;;;;;;;;-0.13;70.17;95530.97;5134357;27;1843;-48
2022/03/02 06:06:41;;;;;;;;;;;;;;;-0.04;69.99;95530.44;5134463;27;1048;-48
2022/03/02 06:09:09;;;;;;;;;;;;;;;-0.16;69.37;95523.22;5134351;27;969;-48
2022/03/02 06:11:36;;;;;;;;;;;;;;;-0.20;69.48;95532.22;5134069;27;1901;-48
2022/03/02 06:14:03;;;;;;;;;;;;;;;-0.09;69.02;95526.38;5134275;27;1988;-52
2022/03/02 06:16:29;;;;;;;;;;;;;;;-0.11;68.03;95525.63;5134333;27;1040;-48
2022/03/02 06:18:56;;;;;;;;;;;;;;;-0.20;67.70;95519.09;5134330;27;969;-47
2022/03/02 06:21:26;;;;;;;;;;;;;;;-0.09;67.16;95513.22;5134319;27;1044;-47
2022/03/02 06:23:53;;;;;;;;;;;;;;;0.00;66.94;95520.59;5134060;27;1842;-47
2022/03/02 06:26:19;;;;;;;;;;;;;;;0.09;66.52;95516.56;5133975;27;1001;-48
2022/03/02 06:28:45;;;;;;;;;;;;;;;0.36;66.51;95507.09;5134203;27;1052;-48
2022/03/02 06:31:13;;;;;;;;;;;;;;;0.43;66.88;95507.56;5134037;28;1032;-47
2022/03/02 06:33:39;;;;;;;;;;;;;;;0.53;66.64;95507.84;5134190;27;1995;-46
2022/03/02 06:36:05;;;;;;;;;;;;;;;0.65;66.34;95516.81;5134078;27;1019;-48
2022/03/02 06:38:31;;;;;;;;;;;;;;;0.69;65.69;95513.91;5134338;27;1019;-47
2022/03/02 06:41:02;;;;;;;;;;;;;;;0.63;65.69;95509.00;5133681;28;1024;-47
2022/03/02 06:43:33;;;;;;;;;;;;;;;0.69;65.63;95510.44;5133692;27;2002;-48
2022/03/02 06:46:05;;;;;;;;;;;;;;;0.70;65.82;95507.72;5134067;27;972;-48
2022/03/02 06:48:34;;;;;;;;;;;;;;;0.77;64.54;95501.13;5134312;27;995;-48
2022/03/02 06:51:00;;;;;;;;;;;;;;;0.78;64.74;95512.50;5128114;27;1149;-48
2022/03/02 06:53:31;;;;;;;;;;;;;;;0.82;64.49;95503.50;5113342;28;1099;-47
2022/03/02 06:55:58;;;;;;;;;;;;;;;0.91;64.01;95502.06;5113228;28;1979;-47
2022/03/02 06:58:25;;;;;;;;;;;;;;;1.08;64.28;95506.28;5113369;28;984;-47
2022/03/02 07:00:52;;;;;;;;;;;;;;;1.26;62.51;95504.31;5112948;28;1241;-48
2022/03/02 07:03:19;;;;;;;;;;;;;;;1.27;62.63;95500.72;5113271;28;1091;-48
2022/03/02 07:05:46;;;;;;;;;;;;;;;1.43;61.22;95503.25;5113174;28;980;-48
2022/03/02 07:08:13;;;;;;;;;;;;;;;1.53;60.64;95504.38;5113112;28;1053;-48
2022/03/02 07:10:39;;;;;;;;;;;;;;;1.61;60.19;95494.16;5113473;28;965;-48
2022/03/02 07:13:06;;;;;;;;;;;;;;;1.70;59.66;95490.09;5113315;28;1011;-48
2022/03/02 07:15:32;;;;;;;;;;;;;;;1.75;60.40;95494.13;5116795;28;1910;-48
2022/03/02 07:17:59;;;;;;;;;;;;;;;1.61;60.33;95491.53;5116612;28;1075;-48
2022/03/02 07:20:27;;;;;;;;;;;;;;;1.74;60.92;95494.22;5117109;28;1015;-48
2022/03/02 07:22:53;;;;;;;;;;;;;;;1.86;61.10;95490.81;5116729;28;1057;-48
2022/03/02 07:25:21;;;;;;;;;;;;;;;2.05;60.96;95492.22;5117060;28;1023;-48
2022/03/02 07:27:49;;;;;;;;;;;;;;;2.11;60.17;95482.13;5116289;27;1111;-48
2022/03/02 07:30:16;;;;;;;;;;;;;;;2.09;59.03;95481.38;5116883;28;972;-48
2022/03/02 07:32:45;;;;;;;;;;;;;;;2.01;58.19;95477.56;5116455;28;988;-48
2022/03/02 07:35:12;;;;;;;;;;;;;;;2.09;58.43;95476.13;5116493;28;1994;-48
2022/03/02 07:37:38;;;;;;;;;;;;;;;2.13;58.19;95472.31;5116510;28;1024;-48
2022/03/02 07:40:05;;;;;;;;;;;;;;;2.53;58.91;95468.81;5116337;28;1004;-47
2022/03/02 07:42:31;;;;;;;;;;;;;;;2.58;56.86;95458.78;5115877;28;1096;-47
2022/03/02 07:44:58;;;;;;;;;;;;;;;2.53;56.57;95466.16;5116238;28;1087;-47
2022/03/02 07:47:24;;;;;;;;;;;;;;;2.76;57.60;95451.38;5116388;28;1016;-48
2022/03/02 07:49:51;;;;;;;;;;;;;;;3.05;56.06;95449.34;5116174;28;1091;-48
2022/03/02 07:52:17;;;;;;;;;;;;;;;3.40;56.13;95442.53;5132792;27;1219;-47
2022/03/02 07:54:44;;;;;;;;;;;;;;;3.37;54.58;95437.44;5136950;27;1905;-47
2022/03/02 07:57:12;;;;;;;;;;;;;;;3.59;56.68;95434.94;5136413;27;1228;-48
2022/03/02 07:59:39;;;;;;;;;;;;;;;3.72;53.32;95435.72;5136611;27;1265;-48
2022/03/02 08:02:06;;;;;;;;;;;;;;;3.73;52.83;95439.22;5136626;27;1044;-47
2022/03/02 08:04:32;;;;;;;;;;;;;;;4.08;52.30;95428.69;5136866;27;1010;-48
2022/03/02 08:06:58;;;;;;;;;;;;;;;4.25;52.70;95435.34;5136447;27;1014;-48
2022/03/02 08:09:24;;;;;;;;;;;;;;;5.30;50.21;95429.09;5136716;27;983;-49
2022/03/02 08:11:50;;;;;;;;;;;;;;;6.56;47.02;95416.13;5135830;27;1103;-48
2022/03/02 08:14:18;;;;;;;;;;;;;;;8.64;42.43;95416.41;5136424;27;1982;-48
2022/03/02 08:16:47;;;;;;;;;;;;;;;12.77;35.15;95415.81;5136126;27;961;-49
2022/03/02 08:19:13;;;;;;;;;;;;;;;17.23;27.96;95424.28;5136205;27;1052;-48
2022/03/02 08:21:41;;;;;;;;;;;;;;;20.58;23.87;95411.03;5136444;27;976;-49
2022/03/02 08:24:09;;;;;;;;;;;;;;;24.46;19.74;95421.50;5135917;27;1008;-47
2022/03/02 08:26:37;;;;;;;;;;;;;;;25.12;17.59;95417.34;5134982;27;987;-47
2022/03/02 08:29:05;;;;;;;;;;;;;;;25.98;17.78;95420.97;5135905;27;1051;-47
2022/03/02 08:31:32;;;;;;;;;;;;;;;25.71;17.37;95414.25;5135097;27;1039;-47
2022/03/02 08:33:59;;;;;;;;;;;;;;;24.91;18.19;95412.59;5135825;27;1909;-47
2022/03/02 08:36:27;;;;;;;;;;;;;;;24.78;18.40;95410.16;5136149;27;1018;-47
2022/03/02 08:38:54;;;;;;;;;;;;;;;23.15;18.87;95404.28;5135784;27;1018;-47
2022/03/02 08:41:20;;;;;;;;;;;;;;;23.85;18.23;95401.91;5134403;27;1967;-47
2022/03/02 08:43:47;;;;;;;;;;;;;;;25.13;16.76;95399.03;5135570;27;1032;-47
2022/03/02 08:46:14;;;;;;;;;;;;;;;26.39;16.12;95400.44;5135980;27;1063;-47
2022/03/02 08:48:40;;;;;;;;;;;;;;;26.68;15.76;95398.34;5135680;27;1036;-47
2022/03/02 08:51:06;;;;;;;;;;;;;;;26.34;16.01;95399.56;5129083;27;1156;-47
2022/03/02 08:53:33;;;;;;;;;;;;;;;26.64;16.22;95405.44;5115094;28;1039;-47
2022/03/02 08:56:00;;;;;;;;;;;;;;;27.11;14.97;95386.72;5114962;28;1910;-46
2022/03/02 08:58:28;;;;;;;;;;;;;;;26.73;15.98;95397.59;5114824;28;995;-47
2022/03/02 09:00:54;;;;;;;;;;;;;;;25.23;15.70;95385.56;5114624;28;1268;-47
2022/03/02 09:03:21;;;;;;;;;;;;;;;24.01;17.35;95382.03;5114586;28;1051;-47
2022/03/02 09:05:51;;;;;;;;;;;;;;;21.12;18.86;95377.06;5114937;28;1067;-47
2022/03/02 09:08:17;;;;;;;;;;;;;;;15.63;25.50;95366.69;5114665;28;1083;-46
2022/03/02 09:10:43;;;;;;;;;;;;;;;17.78;23.65;95370.38;5114689;28;964;-46
2022/03/02 09:13:10;;;;;;;;;;;;;;;18.24;23.08;95367.88;5114249;28;1099;-46
2022/03/02 09:15:37;;;;;;;;;;;;;;;13.58;27.40;95368.31;5114771;28;1980;-51
2022/03/02 09:18:04;;;;;;;;;;;;;;;14.29;28.24;95365.59;5114477;28;1039;-46
2022/03/02 09:20:30;;;;;;;;;;;;;;;14.95;26.43;95353.31;5114394;28;1012;-46
2022/03/02 09:22:59;;;;;;;;;;;;;;;11.80;30.39;95343.97;5114508;28;1012;-46
2022/03/02 09:25:25;;;;;;;;;;;;;;;10.34;33.12;95354.56;5114743;28;1075;-46
2022/03/02 09:27:52;;;;;;;;;;;;;;;9.12;34.94;95356.75;5113931;28;1028;-48
2022/03/02 09:30:18;;;;;;;;;;;;;;;11.59;31.89;95343.53;5114213;28;1056;-48
2022/03/02 09:32:44;;;;;;;;;;;;;;;12.55;31.79;95350.25;5114392;28;975;-48
2022/03/02 09:35:11;;;;;;;;;;;;;;;11.83;32.36;95342.78;5114329;28;1906;-48
2022/03/02 09:37:40;;;;;;;;;;;;;;;10.42;33.93;95339.59;5113684;28;969;-48
2022/03/02 09:40:06;;;;;;;;;;;;;;;9.55;35.50;95340.09;5113857;28;1028;-48
2022/03/02 09:42:39;;;;;;;;;;;;;;;9.63;35.26;95334.00;5112747;28;1040;-48
2022/03/02 09:45:07;;;;;;;;;;;;;;;9.16;37.09;95332.31;5113839;28;1981;-48
2022/03/02 09:47:40;;;;;;;;;;;;;;;10.98;33.22;95326.75;5114052;28;1043;-48
2022/03/02 09:50:08;;;;;;;;;;;;;;;9.56;34.79;95324.91;5113972;28;1038;-48
2022/03/02 09:52:37;;;;;;;;;;;;;;;8.36;37.41;95326.50;5133370;27;1161;-48
2022/03/02 09:55:08;;;;;;;;;;;;;;;8.66;37.19;95310.47;5134258;27;1988;-48
2022/03/02 09:57:40;;;;;;;;;;;;;;;8.29;37.45;95313.91;5134715;27;971;-48
2022/03/02 10:03:35;;;;;;;;;;;;;;;7.52;39.70;95307.63;4087761;27;2280;-48
2022/03/02 10:06:04;;;;;;;;;;;;;;;7.89;38.33;95310.47;5134558;27;980;-48
2022/03/02 10:08:32;;;;;;;;;;;;;;;7.66;38.14;95295.72;5134199;27;1052;-48
2022/03/02 10:11:01;;;;;;;;;;;;;;;7.32;39.48;95302.28;5134380;27;1004;-48
2022/03/02 10:13:27;;;;;;;;;;;;;;;6.98;39.59;95294.66;5134142;27;1016;-48
2022/03/02 10:15:56;;;;;;;;;;;;;;;6.82;39.42;95289.81;5134089;28;1914;-48
2022/03/02 10:18:24;;;;;;;;;;;;;;;6.95;40.18;95284.28;5134437;27;969;-48
2022/03/02 10:20:57;;;;;;;;;;;;;;;7.17;39.07;95293.00;5133134;28;1064;-48
2022/03/02 10:23:41;;;;;;;;;;;;;;;7.50;39.31;95277.66;5134516;27;1015;-48
2022/03/02 10:26:18;;;;;;;;;;;;;;;7.16;39.56;95286.84;5134040;27;949;-48
2022/03/02 10:29:03;;;;;;;;;;;;;;;6.67;39.22;95277.88;5134016;27;1027;-48
2022/03/02 10:31:41;;;;;;;;;;;;;;;6.47;40.72;95270.81;5134329;27;1035;-47
2022/03/02 10:34:14;;;;;;;;;;;;;;;6.36;41.87;95264.63;5133932;27;1993;-49
2022/03/02 10:36:42;;;;;;;;;;;;;;;6.19;41.86;95263.41;5134406;27;1016;-48
2022/03/02 10:39:14;;;;;;;;;;;;;;;6.01;41.79;95257.00;5133842;27;1055;-48
2022/03/02 10:41:43;;;;;;;;;;;;;;;6.02;42.10;95248.94;5132732;28;1039;-48
2022/03/02 10:44:29;;;;;;;;;;;;;;;5.87;42.36;95248.38;5133776;27;1961;-47
2022/03/02 10:47:01;;;;;;;;;;;;;;;5.95;43.03;95245.09;5092580;27;1195;-48
2022/03/02 10:49:29;;;;;;;;;;;;;;;5.89;42.88;95242.94;5138202;27;969;-47
2022/03/02 10:51:56;;;;;;;;;;;;;;;5.75;43.84;95243.25;5124218;27;1216;-48
2022/03/02 10:54:23;;;;;;;;;;;;;;;5.48;44.29;95240.16;5117399;28;1988;-48
2022/03/02 10:56:52;;;;;;;;;;;;;;;5.43;44.00;95237.06;5117024;28;1017;-48
2022/03/02 10:59:20;;;;;;;;;;;;;;;5.58;44.16;95232.28;5117291;28;1040;-47
2022/03/02 11:01:48;;;;;;;;;;;;;;;5.65;44.02;95235.25;5117012;28;1017;-47
2022/03/02 11:04:17;;;;;;;;;;;;;;;5.53;44.67;95223.03;5117089;28;1099;-48
2022/03/02 11:06:44;;;;;;;;;;;;;;;5.54;44.82;95225.56;5116738;28;1035;-48
2022/03/02 11:09:10;;;;;;;;;;;;;;;5.59;46.04;95225.16;5117006;28;1012;-47
2022/03/02 11:11:36;;;;;;;;;;;;;;;5.66;44.14;95215.72;5116903;28;1008;-48
2022/03/02 11:14:03;;;;;;;;;;;;;;;5.73;44.53;95216.88;5116765;28;1928;-47
2022/03/02 11:16:29;;;;;;;;;;;;;;;5.81;44.11;95208.28;5116721;27;1090;-48
2022/03/02 11:18:55;;;;;;;;;;;;;;;5.70;45.11;95208.34;5116798;28;1039;-48
2022/03/02 11:21:28;;;;;;;;;;;;;;;5.86;44.57;95201.59;5116921;28;983;-49
2022/03/02 11:23:56;;;;;;;;;;;;;;;6.04;45.10;95193.06;5116971;28;1036;-47
2022/03/02 11:26:24;;;;;;;;;;;;;;;6.11;44.31;95193.34;5116494;27;1078;-48
2022/03/02 11:28:52;;;;;;;;;;;;;;;6.08;44.29;95188.34;5116667;28;1031;-48
2022/03/02 11:31:24;;;;;;;;;;;;;;;6.02;43.46;95182.56;5116683;28;973;-48
2022/03/02 11:33:51;;;;;;;;;;;;;;;6.06;43.93;95183.97;5116448;28;1921;-48
2022/03/02 11:36:18;;;;;;;;;;;;;;;6.04;43.87;95180.63;5116609;28;998;-48
2022/03/02 11:38:47;;;;;;;;;;;;;;;7.13;42.05;95172.81;5116458;28;1040;-48
2022/03/02 11:41:13;;;;;;;;;;;;;;;7.85;40.44;95167.13;5116352;28;1014;-48
2022/03/02 11:43:39;;;;;;;;;;;;;;;7.95;39.68;95160.78;5116237;28;1870;-48
2022/03/02 11:46:07;;;;;;;;;;;;;;;7.94;40.41;95158.25;5116049;28;1275;-48
2022/03/02 11:48:37;;;;;;;;;;;;;;;7.36;40.36;95157.41;5116520;28;968;-48
2022/03/02 11:51:15;;;;;;;;;;;;;;;6.92;40.99;95148.16;5122383;27;1168;-48
2022/03/02 11:53:42;;;;;;;;;;;;;;;7.20;40.12;95147.31;5137041;27;949;-48
2022/03/02 11:56:09;;;;;;;;;;;;;;;7.75;40.84;95143.19;5136560;27;1984;-48
2022/03/02 11:58:55;;;;;;;;;;;;;;;7.70;40.00;95132.97;5136402;27;952;-48
2022/03/02 12:01:22;;;;;;;;;;;;;;;7.71;39.28;95131.97;5136374;27;1763;-48
2022/03/02 12:03:55;;;;;;;;;;;;;;;7.55;39.71;95129.94;5136337;27;1237;-48
2022/03/02 12:06:21;;;;;;;;;;;;;;;7.24;39.95;95127.44;5136649;27;1015;-48
2022/03/02 12:08:51;;;;;;;;;;;;;;;7.02;40.97;95123.25;5136287;27;1048;-48
2022/03/02 12:11:22;;;;;;;;;;;;;;;6.95;40.92;95116.81;5136177;27;1066;-48
2022/03/02 12:14:01;;;;;;;;;;;;;;;6.59;41.30;95113.84;5136158;27;1027;-48
2022/03/02 12:16:38;;;;;;;;;;;;;;;6.52;42.03;95117.19;5136328;27;1050;-48
2022/03/02 12:19:05;;;;;;;;;;;;;;;6.58;41.12;95108.66;5136329;27;952;-48
2022/03/02 12:21:31;;;;;;;;;;;;;;;6.68;41.60;95104.22;5136135;27;1050;-48
2022/03/02 12:23:59;;;;;;;;;;;;;;;6.82;41.62;95110.94;5135919;27;1968;-48
2022/03/02 12:26:25;;;;;;;;;;;;;;;6.89;41.24;95109.41;5135960;27;1020;-48
2022/03/02 12:28:55;;;;;;;;;;;;;;;7.16;41.03;95110.53;5135942;27;1035;-48
2022/03/02 12:31:28;;;;;;;;;;;;;;;7.37;39.68;95107.69;5136000;27;1072;-48
2022/03/02 12:34:10;;;;;;;;;;;;;;;7.60;39.47;95095.72;5136109;27;2046;-48
2022/03/02 12:36:36;;;;;;;;;;;;;;;7.40;39.85;95100.28;5135709;27;1095;-48
2022/03/02 12:39:02;;;;;;;;;;;;;;;7.49;39.10;95095.06;5135914;27;1063;-48
2022/03/02 12:41:28;;;;;;;;;;;;;;;7.34;39.70;95103.50;5135939;27;983;-48
2022/03/02 12:43:54;;;;;;;;;;;;;;;7.37;39.96;95097.88;5135654;27;1010;-48
2022/03/02 12:46:20;;;;;;;;;;;;;;;7.28;39.15;95093.41;5135667;27;1015;-48
2022/03/02 12:48:47;;;;;;;;;;;;;;;7.33;39.50;95087.69;5135892;27;1048;-48
2022/03/02 12:51:16;;;;;;;;;;;;;;;7.10;39.75;95084.50;5127795;27;1152;-48
2022/03/02 12:53:43;;;;;;;;;;;;;;;7.19;40.00;95083.63;5115092;28;974;-48
2022/03/02 12:56:09;;;;;;;;;;;;;;;7.12;40.15;95090.50;5114882;28;1990;-48
2022/03/02 12:58:37;;;;;;;;;;;;;;;7.01;39.50;95087.00;5114757;28;1935;-48
2022/03/02 13:01:03;;;;;;;;;;;;;;;6.90;39.64;95081.00;5115066;28;1035;-48
2022/03/02 13:03:31;;;;;;;;;;;;;;;6.84;39.69;95079.75;5114553;28;1115;-48
2022/03/02 13:06:01;;;;;;;;;;;;;;;6.83;39.28;95084.22;5114810;28;1046;-48